sensor_id;sensor_type;location;lat;lon;timestamp;P1;P2;P0
28026;PMS5003;15344;52.342;-1.290;2022-09-01T00:02:12;4;2;
28026;PMS5003;15344;52.342;-1.290;2022-09-01T00:04:37;5;2;
28026;PMS5003;15344;52.342;-1.290;2022-09-01T00:07:02;1;1;
28026;PMS5003;15344;52.342;-1.290;2022-09-01T00:09:27;4;3;
28026;PMS5003;15344;52.342;-1.290;2022-09-01T00:11:53;1;1;
28026;PMS5003;15344;52.342;-1.290;2022-09-01T00:14:18;3;1;
28026;PMS5003;15344;52.342;-1.290;2022-09-01T00:16:43;2;2;
28026;PMS5003;15344;52.342;-1.290;2022-09-01T00:19:08;1;1;
28026;PMS5003;15344;52.342;-1.290;2022-09-01T00:21:35;2;1;
28026;PMS5003;15344;52.342;-1.290;2022-09-01T00:23:59;1;1;
28026;PMS5003;15344;52.342;-1.290;2022-09-01T00:26:24;1;0;
28026;PMS5003;15344;52.342;-1.290;2022-09-01T00:28:49;1;1;
28026;PMS5003;15344;52.342;-1.290;2022-09-01T00:31:14;1;1;
28026;PMS5003;15344;52.342;-1.290;2022-09-01T00:33:40;3;3;
28026;PMS5003;15344;52.342;-1.290;2022-09-01T00:36:05;2;2;
28026;PMS5003;15344;52.342;-1.290;2022-09-01T00:38:31;2;2;
28026;PMS5003;15344;52.342;-1.290;2022-09-01T00:40:55;3;3;
28026;PMS5003;15344;52.342;-1.290;2022-09-01T00:43:22;7;2;
28026;PMS5003;15344;52.342;-1.290;2022-09-01T00:45:46;4;3;
28026;PMS5003;15344;52.342;-1.290;2022-09-01T00:48:14;5;2;
28026;PMS5003;15344;52.342;-1.290;2022-09-01T00:50:38;1;1;
28026;PMS5003;15344;52.342;-1.290;2022-09-01T00:53:03;2;2;
28026;PMS5003;15344;52.342;-1.290;2022-09-01T00:55:29;4;3;
28026;PMS5003;15344;52.342;-1.290;2022-09-01T00:57:54;2;2;
28026;PMS5003;15344;52.342;-1.290;2022-09-01T01:00:20;3;3;
28026;PMS5003;15344;52.342;-1.290;2022-09-01T01:02:44;3;3;
28026;PMS5003;15344;52.342;-1.290;2022-09-01T01:05:09;2;2;
28026;PMS5003;15344;52.342;-1.290;2022-09-01T01:07:34;2;2;
28026;PMS5003;15344;52.342;-1.290;2022-09-01T01:10:00;3;3;
28026;PMS5003;15344;52.342;-1.290;2022-09-01T01:12:25;3;3;
28026;PMS5003;15344;52.342;-1.290;2022-09-01T01:14:50;4;4;
28026;PMS5003;15344;52.342;-1.290;2022-09-01T01:17:16;6;4;
28026;PMS5003;15344;52.342;-1.290;2022-09-01T01:19:41;6;3;
28026;PMS5003;15344;52.342;-1.290;2022-09-01T01:22:07;2;2;
28026;PMS5003;15344;52.342;-1.290;2022-09-01T01:24:32;4;4;
28026;PMS5003;15344;52.342;-1.290;2022-09-01T01:26:56;4;4;
28026;PMS5003;15344;52.342;-1.290;2022-09-01T01:29:21;6;4;
28026;PMS5003;15344;52.342;-1.290;2022-09-01T01:31:47;4;3;
28026;PMS5003;15344;52.342;-1.290;2022-09-01T01:34:12;3;3;
28026;PMS5003;15344;52.342;-1.290;2022-09-01T01:36:37;9;6;
28026;PMS5003;15344;52.342;-1.290;2022-09-01T01:39:04;6;6;
28026;PMS5003;15344;52.342;-1.290;2022-09-01T01:41:28;8;3;
28026;PMS5003;15344;52.342;-1.290;2022-09-01T01:43:53;6;4;
28026;PMS5003;15344;52.342;-1.290;2022-09-01T01:46:19;3;3;
28026;PMS5003;15344;52.342;-1.290;2022-09-01T01:48:44;4;4;
28026;PMS5003;15344;52.342;-1.290;2022-09-01T01:51:09;5;5;
28026;PMS5003;15344;52.342;-1.290;2022-09-01T01:53:34;6;4;
28026;PMS5003;15344;52.342;-1.290;2022-09-01T01:55:59;6;5;
28026;PMS5003;15344;52.342;-1.290;2022-09-01T01:58:25;3;3;
28026;PMS5003;15344;52.342;-1.290;2022-09-01T02:00:51;5;3;
28026;PMS5003;15344;52.342;-1.290;2022-09-01T02:03:16;1;1;
28026;PMS5003;15344;52.342;-1.290;2022-09-01T02:05:40;7;5;
28026;PMS5003;15344;52.342;-1.290;2022-09-01T02:08:06;6;4;
28026;PMS5003;15344;52.342;-1.290;2022-09-01T02:10:32;5;5;
28026;PMS5003;15344;52.342;-1.290;2022-09-01T02:12:56;6;3;
28026;PMS5003;15344;52.342;-1.290;2022-09-01T02:15:21;5;5;
28026;PMS5003;15344;52.342;-1.290;2022-09-01T02:17:46;6;6;
28026;PMS5003;15344;52.342;-1.290;2022-09-01T02:20:12;4;3;
28026;PMS5003;15344;52.342;-1.290;2022-09-01T02:22:37;5;5;
28026;PMS5003;15344;52.342;-1.290;2022-09-01T02:25:02;7;6;
28026;PMS5003;15344;52.342;-1.290;2022-09-01T02:27:27;6;6;
28026;PMS5003;15344;52.342;-1.290;2022-09-01T02:29:53;7;7;
28026;PMS5003;15344;52.342;-1.290;2022-09-01T02:32:18;7;4;
28026;PMS5003;15344;52.342;-1.290;2022-09-01T02:34:43;6;6;
28026;PMS5003;15344;52.342;-1.290;2022-09-01T02:37:08;5;5;
28026;PMS5003;15344;52.342;-1.290;2022-09-01T02:39:34;4;4;
28026;PMS5003;15344;52.342;-1.290;2022-09-01T02:42:00;4;4;
28026;PMS5003;15344;52.342;-1.290;2022-09-01T02:44:25;7;5;
28026;PMS5003;15344;52.342;-1.290;2022-09-01T02:46:51;5;5;
28026;PMS5003;15344;52.342;-1.290;2022-09-01T02:49:17;7;5;
28026;PMS5003;15344;52.342;-1.290;2022-09-01T02:51:42;5;4;
28026;PMS5003;15344;52.342;-1.290;2022-09-01T02:54:07;10;6;
28026;PMS5003;15344;52.342;-1.290;2022-09-01T02:56:32;9;5;
28026;PMS5003;15344;52.342;-1.290;2022-09-01T02:58:57;5;5;
28026;PMS5003;15344;52.342;-1.290;2022-09-01T03:01:23;3;3;
28026;PMS5003;15344;52.342;-1.290;2022-09-01T03:03:48;5;5;
28026;PMS5003;15344;52.342;-1.290;2022-09-01T03:06:13;10;5;
28026;PMS5003;15344;52.342;-1.290;2022-09-01T03:08:38;6;6;
28026;PMS5003;15344;52.342;-1.290;2022-09-01T03:11:04;4;4;
28026;PMS5003;15344;52.342;-1.290;2022-09-01T03:13:29;7;4;
28026;PMS5003;15344;52.342;-1.290;2022-09-01T03:15:54;4;4;
28026;PMS5003;15344;52.342;-1.290;2022-09-01T03:18:19;9;7;
28026;PMS5003;15344;52.342;-1.290;2022-09-01T03:20:45;10;6;
28026;PMS5003;15344;52.342;-1.290;2022-09-01T03:23:11;6;6;
28026;PMS5003;15344;52.342;-1.290;2022-09-01T03:25:36;11;8;
28026;PMS5003;15344;52.342;-1.290;2022-09-01T03:28:02;4;4;
28026;PMS5003;15344;52.342;-1.290;2022-09-01T03:30:27;4;4;
28026;PMS5003;15344;52.342;-1.290;2022-09-01T03:32:53;7;5;
28026;PMS5003;15344;52.342;-1.290;2022-09-01T03:35:18;5;5;
28026;PMS5003;15344;52.342;-1.290;2022-09-01T03:37:43;6;4;
28026;PMS5003;15344;52.342;-1.290;2022-09-01T03:40:08;7;6;
28026;PMS5003;15344;52.342;-1.290;2022-09-01T03:42:33;7;7;
28026;PMS5003;15344;52.342;-1.290;2022-09-01T03:44:58;4;4;
28026;PMS5003;15344;52.342;-1.290;2022-09-01T03:47:24;9;5;
28026;PMS5003;15344;52.342;-1.290;2022-09-01T03:49:49;10;6;
28026;PMS5003;15344;52.342;-1.290;2022-09-01T03:52:15;10;10;
28026;PMS5003;15344;52.342;-1.290;2022-09-01T03:54:40;7;5;
28026;PMS5003;15344;52.342;-1.290;2022-09-01T03:57:06;4;4;
28026;PMS5003;15344;52.342;-1.290;2022-09-01T03:59:31;8;6;
28026;PMS5003;15344;52.342;-1.290;2022-09-01T04:01:56;5;5;
28026;PMS5003;15344;52.342;-1.290;2022-09-01T04:04:22;6;5;
28026;PMS5003;15344;52.342;-1.290;2022-09-01T04:06:47;8;6;
28026;PMS5003;15344;52.342;-1.290;2022-09-01T04:09:12;5;5;
28026;PMS5003;15344;52.342;-1.290;2022-09-01T04:11:38;5;4;
28026;PMS5003;15344;52.342;-1.290;2022-09-01T04:14:03;6;4;
28026;PMS5003;15344;52.342;-1.290;2022-09-01T04:16:29;5;5;
28026;PMS5003;15344;52.342;-1.290;2022-09-01T04:18:53;4;4;
28026;PMS5003;15344;52.342;-1.290;2022-09-01T04:21:19;6;4;
28026;PMS5003;15344;52.342;-1.290;2022-09-01T04:23:44;4;4;
28026;PMS5003;15344;52.342;-1.290;2022-09-01T04:26:11;6;5;
28026;PMS5003;15344;52.342;-1.290;2022-09-01T04:28:35;5;5;
28026;PMS5003;15344;52.342;-1.290;2022-09-01T04:31:01;5;5;
28026;PMS5003;15344;52.342;-1.290;2022-09-01T04:33:26;6;6;
28026;PMS5003;15344;52.342;-1.290;2022-09-01T04:35:51;6;5;
28026;PMS5003;15344;52.342;-1.290;2022-09-01T04:38:16;6;5;
28026;PMS5003;15344;52.342;-1.290;2022-09-01T04:40:41;6;6;
28026;PMS5003;15344;52.342;-1.290;2022-09-01T04:43:07;6;6;
28026;PMS5003;15344;52.342;-1.290;2022-09-01T04:45:33;7;5;
28026;PMS5003;15344;52.342;-1.290;2022-09-01T04:47:57;4;4;
28026;PMS5003;15344;52.342;-1.290;2022-09-01T04:50:23;5;5;
28026;PMS5003;15344;52.342;-1.290;2022-09-01T04:52:48;8;5;
28026;PMS5003;15344;52.342;-1.290;2022-09-01T04:55:13;6;6;
28026;PMS5003;15344;52.342;-1.290;2022-09-01T04:57:38;7;6;
28026;PMS5003;15344;52.342;-1.290;2022-09-01T05:00:04;3;3;
28026;PMS5003;15344;52.342;-1.290;2022-09-01T05:02:29;7;5;
28026;PMS5003;15344;52.342;-1.290;2022-09-01T05:04:54;8;6;
28026;PMS5003;15344;52.342;-1.290;2022-09-01T05:07:19;5;4;
28026;PMS5003;15344;52.342;-1.290;2022-09-01T05:09:45;6;4;
28026;PMS5003;15344;52.342;-1.290;2022-09-01T05:12:10;5;5;
28026;PMS5003;15344;52.342;-1.290;2022-09-01T05:14:36;5;5;
28026;PMS5003;15344;52.342;-1.290;2022-09-01T05:17:06;8;6;
28026;PMS5003;15344;52.342;-1.290;2022-09-01T05:19:26;6;5;
28026;PMS5003;15344;52.342;-1.290;2022-09-01T05:21:51;6;4;
28026;PMS5003;15344;52.342;-1.290;2022-09-01T05:24:18;9;6;
28026;PMS5003;15344;52.342;-1.290;2022-09-01T05:26:42;5;4;
28026;PMS5003;15344;52.342;-1.290;2022-09-01T05:29:07;8;5;
28026;PMS5003;15344;52.342;-1.290;2022-09-01T05:31:32;3;3;
28026;PMS5003;15344;52.342;-1.290;2022-09-01T05:33:57;5;5;
28026;PMS5003;15344;52.342;-1.290;2022-09-01T05:36:23;5;4;
28026;PMS5003;15344;52.342;-1.290;2022-09-01T05:38:49;4;4;
28026;PMS5003;15344;52.342;-1.290;2022-09-01T05:41:14;4;4;
28026;PMS5003;15344;52.342;-1.290;2022-09-01T05:43:39;4;3;
28026;PMS5003;15344;52.342;-1.290;2022-09-01T05:46:06;4;4;
28026;PMS5003;15344;52.342;-1.290;2022-09-01T05:48:30;11;9;
28026;PMS5003;15344;52.342;-1.290;2022-09-01T05:50:55;2;2;
28026;PMS5003;15344;52.342;-1.290;2022-09-01T05:53:20;4;3;
28026;PMS5003;15344;52.342;-1.290;2022-09-01T05:55:46;3;3;
28026;PMS5003;15344;52.342;-1.290;2022-09-01T05:58:11;5;3;
28026;PMS5003;15344;52.342;-1.290;2022-09-01T06:00:36;5;3;
28026;PMS5003;15344;52.342;-1.290;2022-09-01T06:03:01;6;4;
28026;PMS5003;15344;52.342;-1.290;2022-09-01T06:05:27;7;3;
28026;PMS5003;15344;52.342;-1.290;2022-09-01T06:07:52;3;3;
28026;PMS5003;15344;52.342;-1.290;2022-09-01T06:10:18;4;4;
28026;PMS5003;15344;52.342;-1.290;2022-09-01T06:12:43;3;2;
28026;PMS5003;15344;52.342;-1.290;2022-09-01T06:15:09;6;3;
28026;PMS5003;15344;52.342;-1.290;2022-09-01T06:17:33;4;3;
28026;PMS5003;15344;52.342;-1.290;2022-09-01T06:19:59;2;2;
28026;PMS5003;15344;52.342;-1.290;2022-09-01T06:22:25;3;3;
28026;PMS5003;15344;52.342;-1.290;2022-09-01T06:24:50;3;3;
28026;PMS5003;15344;52.342;-1.290;2022-09-01T06:27:15;3;3;
28026;PMS5003;15344;52.342;-1.290;2022-09-01T06:29:40;5;2;
28026;PMS5003;15344;52.342;-1.290;2022-09-01T06:32:06;3;2;
28026;PMS5003;15344;52.342;-1.290;2022-09-01T06:34:31;8;4;
28026;PMS5003;15344;52.342;-1.290;2022-09-01T06:36:56;2;2;
28026;PMS5003;15344;52.342;-1.290;2022-09-01T06:39:21;3;3;
28026;PMS5003;15344;52.342;-1.290;2022-09-01T06:41:47;2;2;
28026;PMS5003;15344;52.342;-1.290;2022-09-01T06:44:12;6;4;
28026;PMS5003;15344;52.342;-1.290;2022-09-01T06:46:37;5;2;
28026;PMS5003;15344;52.342;-1.290;2022-09-01T06:49:02;5;4;
28026;PMS5003;15344;52.342;-1.290;2022-09-01T06:51:27;3;3;
28026;PMS5003;15344;52.342;-1.290;2022-09-01T06:53:53;1;1;
28026;PMS5003;15344;52.342;-1.290;2022-09-01T06:56:18;1;1;
28026;PMS5003;15344;52.342;-1.290;2022-09-01T06:58:44;3;1;
28026;PMS5003;15344;52.342;-1.290;2022-09-01T07:01:09;3;2;
28026;PMS5003;15344;52.342;-1.290;2022-09-01T07:03:33;2;2;
28026;PMS5003;15344;52.342;-1.290;2022-09-01T07:05:59;4;3;
28026;PMS5003;15344;52.342;-1.290;2022-09-01T07:08:24;3;3;
28026;PMS5003;15344;52.342;-1.290;2022-09-01T07:10:50;3;1;
28026;PMS5003;15344;52.342;-1.290;2022-09-01T07:13:16;3;2;
28026;PMS5003;15344;52.342;-1.290;2022-09-01T07:15:41;2;2;
28026;PMS5003;15344;52.342;-1.290;2022-09-01T07:18:05;2;2;
28026;PMS5003;15344;52.342;-1.290;2022-09-01T07:20:31;4;2;
28026;PMS5003;15344;52.342;-1.290;2022-09-01T07:22:56;1;1;
28026;PMS5003;15344;52.342;-1.290;2022-09-01T07:25:21;2;2;
28026;PMS5003;15344;52.342;-1.290;2022-09-01T07:27:46;3;1;
28026;PMS5003;15344;52.342;-1.290;2022-09-01T07:30:11;2;2;
28026;PMS5003;15344;52.342;-1.290;2022-09-01T07:32:36;3;2;
28026;PMS5003;15344;52.342;-1.290;2022-09-01T07:35:02;4;1;
28026;PMS5003;15344;52.342;-1.290;2022-09-01T07:37:27;1;1;
28026;PMS5003;15344;52.342;-1.290;2022-09-01T07:39:52;7;0;
28026;PMS5003;15344;52.342;-1.290;2022-09-01T07:42:18;4;2;
28026;PMS5003;15344;52.342;-1.290;2022-09-01T07:44:42;4;3;
28026;PMS5003;15344;52.342;-1.290;2022-09-01T07:47:07;0;0;
28026;PMS5003;15344;52.342;-1.290;2022-09-01T07:49:32;1;1;
28026;PMS5003;15344;52.342;-1.290;2022-09-01T07:51:57;2;2;
28026;PMS5003;15344;52.342;-1.290;2022-09-01T07:54:23;1;1;
28026;PMS5003;15344;52.342;-1.290;2022-09-01T07:56:48;4;3;
28026;PMS5003;15344;52.342;-1.290;2022-09-01T07:59:18;6;1;
28026;PMS5003;15344;52.342;-1.290;2022-09-01T08:01:38;2;2;
28026;PMS5003;15344;52.342;-1.290;2022-09-01T08:04:04;2;2;
28026;PMS5003;15344;52.342;-1.290;2022-09-01T08:06:29;0;0;
28026;PMS5003;15344;52.342;-1.290;2022-09-01T08:08:54;3;2;
28026;PMS5003;15344;52.342;-1.290;2022-09-01T08:11:19;4;3;
28026;PMS5003;15344;52.342;-1.290;2022-09-01T08:13:44;2;2;
28026;PMS5003;15344;52.342;-1.290;2022-09-01T08:16:09;0;0;
28026;PMS5003;15344;52.342;-1.290;2022-09-01T08:18:34;2;2;
28026;PMS5003;15344;52.342;-1.290;2022-09-01T08:21:00;1;1;
28026;PMS5003;15344;52.342;-1.290;2022-09-01T08:23:24;3;1;
28026;PMS5003;15344;52.342;-1.290;2022-09-01T08:25:49;3;2;
28026;PMS5003;15344;52.342;-1.290;2022-09-01T08:28:14;1;1;
28026;PMS5003;15344;52.342;-1.290;2022-09-01T08:30:41;1;1;
28026;PMS5003;15344;52.342;-1.290;2022-09-01T08:33:05;1;1;
28026;PMS5003;15344;52.342;-1.290;2022-09-01T08:35:30;2;1;
28026;PMS5003;15344;52.342;-1.290;2022-09-01T08:37:55;0;0;
28026;PMS5003;15344;52.342;-1.290;2022-09-01T08:40:20;6;2;
28026;PMS5003;15344;52.342;-1.290;2022-09-01T08:42:49;1;1;
28026;PMS5003;15344;52.342;-1.290;2022-09-01T08:45:14;1;1;
28026;PMS5003;15344;52.342;-1.290;2022-09-01T08:47:37;3;3;
28026;PMS5003;15344;52.342;-1.290;2022-09-01T08:50:02;1;0;
28026;PMS5003;15344;52.342;-1.290;2022-09-01T08:52:30;0;0;
28026;PMS5003;15344;52.342;-1.290;2022-09-01T08:54:55;2;0;
28026;PMS5003;15344;52.342;-1.290;2022-09-01T08:57:20;1;1;
28026;PMS5003;15344;52.342;-1.290;2022-09-01T08:59:46;2;0;
28026;PMS5003;15344;52.342;-1.290;2022-09-01T09:02:20;3;0;
28026;PMS5003;15344;52.342;-1.290;2022-09-01T09:04:41;2;1;
28026;PMS5003;15344;52.342;-1.290;2022-09-01T09:07:04;4;1;
28026;PMS5003;15344;52.342;-1.290;2022-09-01T09:09:29;3;1;
28026;PMS5003;15344;52.342;-1.290;2022-09-01T09:11:58;3;1;
28026;PMS5003;15344;52.342;-1.290;2022-09-01T09:14:27;1;1;
28026;PMS5003;15344;52.342;-1.290;2022-09-01T09:16:47;4;2;
28026;PMS5003;15344;52.342;-1.290;2022-09-01T09:19:14;2;1;
28026;PMS5003;15344;52.342;-1.290;2022-09-01T09:21:39;1;1;
28026;PMS5003;15344;52.342;-1.290;2022-09-01T09:24:06;0;0;
28026;PMS5003;15344;52.342;-1.290;2022-09-01T09:26:29;3;2;
28026;PMS5003;15344;52.342;-1.290;2022-09-01T09:28:55;5;3;
28026;PMS5003;15344;52.342;-1.290;2022-09-01T09:31:25;2;2;
28026;PMS5003;15344;52.342;-1.290;2022-09-01T09:33:47;1;1;
28026;PMS5003;15344;52.342;-1.290;2022-09-01T09:36:16;0;0;
28026;PMS5003;15344;52.342;-1.290;2022-09-01T09:38:38;1;1;
28026;PMS5003;15344;52.342;-1.290;2022-09-01T09:41:03;4;2;
28026;PMS5003;15344;52.342;-1.290;2022-09-01T09:43:28;4;2;
28026;PMS5003;15344;52.342;-1.290;2022-09-01T09:45:57;2;2;
28026;PMS5003;15344;52.342;-1.290;2022-09-01T09:50:43;1;1;
28026;PMS5003;15344;52.342;-1.290;2022-09-01T09:53:12;2;2;
28026;PMS5003;15344;52.342;-1.290;2022-09-01T09:55:33;2;2;
28026;PMS5003;15344;52.342;-1.290;2022-09-01T09:57:58;2;1;
28026;PMS5003;15344;52.342;-1.290;2022-09-01T10:00:24;1;1;
28026;PMS5003;15344;52.342;-1.290;2022-09-01T10:02:51;2;2;
28026;PMS5003;15344;52.342;-1.290;2022-09-01T10:07:38;6;2;
28026;PMS5003;15344;52.342;-1.290;2022-09-01T10:10:04;2;2;
28026;PMS5003;15344;52.342;-1.290;2022-09-01T10:12:28;3;3;
28026;PMS5003;15344;52.342;-1.290;2022-09-01T10:14:54;4;2;
28026;PMS5003;15344;52.342;-1.290;2022-09-01T10:17:20;2;0;
28026;PMS5003;15344;52.342;-1.290;2022-09-01T10:19:47;4;2;
28026;PMS5003;15344;52.342;-1.290;2022-09-01T10:22:08;2;2;
28026;PMS5003;15344;52.342;-1.290;2022-09-01T10:24:35;2;2;
28026;PMS5003;15344;52.342;-1.290;2022-09-01T10:26:59;4;3;
28026;PMS5003;15344;52.342;-1.290;2022-09-01T10:29:24;3;3;
28026;PMS5003;15344;52.342;-1.290;2022-09-01T10:31:48;3;2;
28026;PMS5003;15344;52.342;-1.290;2022-09-01T10:34:14;3;2;
28026;PMS5003;15344;52.342;-1.290;2022-09-01T10:36:39;2;2;
28026;PMS5003;15344;52.342;-1.290;2022-09-01T10:39:06;3;1;
28026;PMS5003;15344;52.342;-1.290;2022-09-01T10:43:54;4;3;
28026;PMS5003;15344;52.342;-1.290;2022-09-01T10:48:44;3;3;
28026;PMS5003;15344;52.342;-1.290;2022-09-01T10:53:36;1;1;
28026;PMS5003;15344;52.342;-1.290;2022-09-01T10:56:00;5;3;
28026;PMS5003;15344;52.342;-1.290;2022-09-01T10:58:28;2;2;
28026;PMS5003;15344;52.342;-1.290;2022-09-01T11:00:51;1;1;
28026;PMS5003;15344;52.342;-1.290;2022-09-01T11:10:35;3;3;
28026;PMS5003;15344;52.342;-1.290;2022-09-01T11:13:05;4;4;
28026;PMS5003;15344;52.342;-1.290;2022-09-01T11:20:21;2;2;
28026;PMS5003;15344;52.342;-1.290;2022-09-01T11:22:40;0;0;
28026;PMS5003;15344;52.342;-1.290;2022-09-01T11:25:07;2;1;
28026;PMS5003;15344;52.342;-1.290;2022-09-01T11:29:58;2;2;
28026;PMS5003;15344;52.342;-1.290;2022-09-01T11:32:24;1;0;
28026;PMS5003;15344;52.342;-1.290;2022-09-01T11:34:49;1;1;
28026;PMS5003;15344;52.342;-1.290;2022-09-01T11:37:16;0;0;
28026;PMS5003;15344;52.342;-1.290;2022-09-01T11:39:42;3;1;
28026;PMS5003;15344;52.342;-1.290;2022-09-01T11:42:09;2;2;
28026;PMS5003;15344;52.342;-1.290;2022-09-01T11:44:42;3;2;
28026;PMS5003;15344;52.342;-1.290;2022-09-01T11:47:01;3;2;
28026;PMS5003;15344;52.342;-1.290;2022-09-01T11:49:26;3;3;
28026;PMS5003;15344;52.342;-1.290;2022-09-01T11:51:50;7;5;
28026;PMS5003;15344;52.342;-1.290;2022-09-01T11:54:15;12;9;
28026;PMS5003;15344;52.342;-1.290;2022-09-01T11:56:40;3;3;
28026;PMS5003;15344;52.342;-1.290;2022-09-01T11:59:06;5;3;
28026;PMS5003;15344;52.342;-1.290;2022-09-01T12:01:32;2;2;
28026;PMS5003;15344;52.342;-1.290;2022-09-01T12:04:06;5;3;
28026;PMS5003;15344;52.342;-1.290;2022-09-01T12:06:24;6;5;
28026;PMS5003;15344;52.342;-1.290;2022-09-01T12:08:51;2;2;
28026;PMS5003;15344;52.342;-1.290;2022-09-01T12:11:17;4;4;
28026;PMS5003;15344;52.342;-1.290;2022-09-01T12:13:41;3;2;
28026;PMS5003;15344;52.342;-1.290;2022-09-01T12:16:08;3;2;
28026;PMS5003;15344;52.342;-1.290;2022-09-01T12:18:34;2;2;
28026;PMS5003;15344;52.342;-1.290;2022-09-01T12:20:59;2;2;
28026;PMS5003;15344;52.342;-1.290;2022-09-01T12:23:25;8;4;
28026;PMS5003;15344;52.342;-1.290;2022-09-01T12:25:50;3;3;
28026;PMS5003;15344;52.342;-1.290;2022-09-01T12:28:16;3;3;
28026;PMS5003;15344;52.342;-1.290;2022-09-01T12:30:42;6;2;
28026;PMS5003;15344;52.342;-1.290;2022-09-01T12:33:08;4;3;
28026;PMS5003;15344;52.342;-1.290;2022-09-01T12:35:34;3;2;
28026;PMS5003;15344;52.342;-1.290;2022-09-01T12:40:30;3;3;
28026;PMS5003;15344;52.342;-1.290;2022-09-01T12:42:51;6;3;
28026;PMS5003;15344;52.342;-1.290;2022-09-01T12:47:44;2;2;
28026;PMS5003;15344;52.342;-1.290;2022-09-01T12:52:35;3;3;
28026;PMS5003;15344;52.342;-1.290;2022-09-01T12:57:27;3;3;
28026;PMS5003;15344;52.342;-1.290;2022-09-01T13:04:44;4;4;
28026;PMS5003;15344;52.342;-1.290;2022-09-01T13:07:10;4;4;
28026;PMS5003;15344;52.342;-1.290;2022-09-01T13:09:35;3;3;
28026;PMS5003;15344;52.342;-1.290;2022-09-01T13:14:27;3;3;
28026;PMS5003;15344;52.342;-1.290;2022-09-01T13:16:53;4;2;
28026;PMS5003;15344;52.342;-1.290;2022-09-01T13:19:19;3;3;
28026;PMS5003;15344;52.342;-1.290;2022-09-01T13:21:44;3;3;
28026;PMS5003;15344;52.342;-1.290;2022-09-01T13:24:10;4;4;
28026;PMS5003;15344;52.342;-1.290;2022-09-01T13:26:36;3;3;
28026;PMS5003;15344;52.342;-1.290;2022-09-01T13:29:02;3;3;
28026;PMS5003;15344;52.342;-1.290;2022-09-01T13:31:28;4;2;
28026;PMS5003;15344;52.342;-1.290;2022-09-01T13:33:54;1;1;
28026;PMS5003;15344;52.342;-1.290;2022-09-01T13:36:20;4;4;
28026;PMS5003;15344;52.342;-1.290;2022-09-01T13:38:45;1;1;
28026;PMS5003;15344;52.342;-1.290;2022-09-01T13:41:11;2;2;
28026;PMS5003;15344;52.342;-1.290;2022-09-01T13:43:37;2;2;
28026;PMS5003;15344;52.342;-1.290;2022-09-01T13:46:03;4;4;
28026;PMS5003;15344;52.342;-1.290;2022-09-01T13:48:29;4;3;
28026;PMS5003;15344;52.342;-1.290;2022-09-01T13:50:54;3;3;
28026;PMS5003;15344;52.342;-1.290;2022-09-01T13:53:20;9;6;
28026;PMS5003;15344;52.342;-1.290;2022-09-01T13:55:46;2;2;
28026;PMS5003;15344;52.342;-1.290;2022-09-01T13:58:12;5;3;
28026;PMS5003;15344;52.342;-1.290;2022-09-01T14:00:39;5;3;
28026;PMS5003;15344;52.342;-1.290;2022-09-01T14:03:05;4;4;
28026;PMS5003;15344;52.342;-1.290;2022-09-01T14:05:31;1;1;
28026;PMS5003;15344;52.342;-1.290;2022-09-01T14:07:55;5;3;
28026;PMS5003;15344;52.342;-1.290;2022-09-01T14:10:21;1;1;
28026;PMS5003;15344;52.342;-1.290;2022-09-01T14:12:47;6;4;
28026;PMS5003;15344;52.342;-1.290;2022-09-01T14:15:14;3;3;
28026;PMS5003;15344;52.342;-1.290;2022-09-01T14:17:39;4;3;
28026;PMS5003;15344;52.342;-1.290;2022-09-01T14:20:06;1;1;
28026;PMS5003;15344;52.342;-1.290;2022-09-01T14:22:31;3;3;
28026;PMS5003;15344;52.342;-1.290;2022-09-01T14:24:56;3;3;
28026;PMS5003;15344;52.342;-1.290;2022-09-01T14:27:22;4;3;
28026;PMS5003;15344;52.342;-1.290;2022-09-01T14:29:48;5;4;
28026;PMS5003;15344;52.342;-1.290;2022-09-01T14:32:14;4;2;
28026;PMS5003;15344;52.342;-1.290;2022-09-01T14:34:39;2;2;
28026;PMS5003;15344;52.342;-1.290;2022-09-01T14:37:05;3;3;
28026;PMS5003;15344;52.342;-1.290;2022-09-01T14:39:32;6;2;
28026;PMS5003;15344;52.342;-1.290;2022-09-01T14:41:57;3;3;
28026;PMS5003;15344;52.342;-1.290;2022-09-01T14:44:23;2;2;
28026;PMS5003;15344;52.342;-1.290;2022-09-01T14:46:49;3;2;
28026;PMS5003;15344;52.342;-1.290;2022-09-01T14:49:15;3;1;
28026;PMS5003;15344;52.342;-1.290;2022-09-01T14:51:40;3;3;
28026;PMS5003;15344;52.342;-1.290;2022-09-01T14:54:06;2;2;
28026;PMS5003;15344;52.342;-1.290;2022-09-01T14:56:32;4;2;
28026;PMS5003;15344;52.342;-1.290;2022-09-01T14:58:58;4;3;
28026;PMS5003;15344;52.342;-1.290;2022-09-01T15:01:24;5;4;
28026;PMS5003;15344;52.342;-1.290;2022-09-01T15:03:50;2;2;
28026;PMS5003;15344;52.342;-1.290;2022-09-01T15:06:16;7;3;
28026;PMS5003;15344;52.342;-1.290;2022-09-01T15:08:42;2;1;
28026;PMS5003;15344;52.342;-1.290;2022-09-01T15:11:08;3;2;
28026;PMS5003;15344;52.342;-1.290;2022-09-01T15:13:33;3;3;
28026;PMS5003;15344;52.342;-1.290;2022-09-01T15:15:59;2;2;
28026;PMS5003;15344;52.342;-1.290;2022-09-01T15:18:25;5;5;
28026;PMS5003;15344;52.342;-1.290;2022-09-01T15:20:50;5;2;
28026;PMS5003;15344;52.342;-1.290;2022-09-01T15:23:17;2;2;
28026;PMS5003;15344;52.342;-1.290;2022-09-01T15:25:42;2;2;
28026;PMS5003;15344;52.342;-1.290;2022-09-01T15:28:08;4;2;
28026;PMS5003;15344;52.342;-1.290;2022-09-01T15:30:34;2;2;
28026;PMS5003;15344;52.342;-1.290;2022-09-01T15:32:59;2;2;
28026;PMS5003;15344;52.342;-1.290;2022-09-01T15:35:26;2;2;
28026;PMS5003;15344;52.342;-1.290;2022-09-01T15:37:51;2;2;
28026;PMS5003;15344;52.342;-1.290;2022-09-01T15:40:18;3;1;
28026;PMS5003;15344;52.342;-1.290;2022-09-01T15:42:43;5;3;
28026;PMS5003;15344;52.342;-1.290;2022-09-01T15:45:10;2;2;
28026;PMS5003;15344;52.342;-1.290;2022-09-01T15:47:35;3;1;
28026;PMS5003;15344;52.342;-1.290;2022-09-01T15:50:01;4;4;
28026;PMS5003;15344;52.342;-1.290;2022-09-01T15:52:26;2;2;
28026;PMS5003;15344;52.342;-1.290;2022-09-01T15:54:52;3;3;
28026;PMS5003;15344;52.342;-1.290;2022-09-01T15:57:18;2;2;
28026;PMS5003;15344;52.342;-1.290;2022-09-01T15:59:44;2;2;
28026;PMS5003;15344;52.342;-1.290;2022-09-01T16:02:10;2;2;
28026;PMS5003;15344;52.342;-1.290;2022-09-01T16:04:36;5;5;
28026;PMS5003;15344;52.342;-1.290;2022-09-01T16:07:02;5;4;
28026;PMS5003;15344;52.342;-1.290;2022-09-01T16:09:27;2;2;
28026;PMS5003;15344;52.342;-1.290;2022-09-01T16:11:52;2;2;
28026;PMS5003;15344;52.342;-1.290;2022-09-01T16:14:17;3;3;
28026;PMS5003;15344;52.342;-1.290;2022-09-01T16:16:44;2;2;
28026;PMS5003;15344;52.342;-1.290;2022-09-01T16:19:12;2;2;
28026;PMS5003;15344;52.342;-1.290;2022-09-01T16:21:36;3;3;
28026;PMS5003;15344;52.342;-1.290;2022-09-01T16:23:57;2;2;
28026;PMS5003;15344;52.342;-1.290;2022-09-01T16:26:23;6;5;
28026;PMS5003;15344;52.342;-1.290;2022-09-01T16:28:48;4;4;
28026;PMS5003;15344;52.342;-1.290;2022-09-01T16:31:13;4;3;
28026;PMS5003;15344;52.342;-1.290;2022-09-01T16:33:38;5;2;
28026;PMS5003;15344;52.342;-1.290;2022-09-01T16:36:07;2;2;
28026;PMS5003;15344;52.342;-1.290;2022-09-01T16:38:31;2;2;
28026;PMS5003;15344;52.342;-1.290;2022-09-01T16:40:54;3;2;
28026;PMS5003;15344;52.342;-1.290;2022-09-01T16:43:20;2;2;
28026;PMS5003;15344;52.342;-1.290;2022-09-01T16:45:45;4;4;
28026;PMS5003;15344;52.342;-1.290;2022-09-01T16:48:11;2;2;
28026;PMS5003;15344;52.342;-1.290;2022-09-01T16:50:36;6;5;
28026;PMS5003;15344;52.342;-1.290;2022-09-01T16:53:05;6;1;
28026;PMS5003;15344;52.342;-1.290;2022-09-01T16:55:26;3;3;
28026;PMS5003;15344;52.342;-1.290;2022-09-01T16:57:51;4;2;
28026;PMS5003;15344;52.342;-1.290;2022-09-01T17:00:14;3;2;
28026;PMS5003;15344;52.342;-1.290;2022-09-01T17:02:46;3;2;
28026;PMS5003;15344;52.342;-1.290;2022-09-01T17:05:08;5;2;